Terminal Aerodrome Forecast
Issued by NWS

Home | Current Version | Previous Version | Text Only | Print | Product List | Glossary On
Versions: 1 2 3 4 5 6 7 8 9 10 11 12 13 14 15
000
FTUS44 KTSA 281138
TAFXNA
TAF
KXNA 281138Z 2812/0112 19017G27KT P6SM OVC012
     FM282200 20015G25KT P6SM VCTS BKN025CB BKN250
     FM010200 20015G25KT P6SM BKN025 BKN250
      TEMPO 0106/0110 2SM TSRA BKN015CB
     FM011000 29015G25KT P6SM BKN050=

USA.gov is the U.S. government's official web portal to all federal, state and local government web resources and services.